CheckWX is a tool to help pilots better visualize weather data.  It is not intended as a substitute for an official pre-flight weather briefing.

15:15:55 UTC

KRCV METAR
Astronaut Kent Rominger Airport
Del Norte, Colorado, USA
Current

41 mins ago

KRCV 201435Z AUTO 27008KT 10SM SCT032 BKN038 BKN047 07/M01 A2981 RMK AO2 T00691010
Observed
May-20 @ 14:35 UTC
Wind
  • 270° at 8 KTS
Visibility
10 SM
Flight Rules
VFR
Cloud Levels
  • Scattered at 3,200' AGL
  • Broken at 3,800' AGL
  • Broken at 4,700' AGL
Temperature
C / 45°F
Dewpoint
-1°C / 30°F
Humidity
57%
Altimeter
29.81" Hg
Pressure
1009.52 hPa
Previous

1 hour ago

KRCV 201415Z AUTO 00000KT 10SM SCT032 06/M01 A2982 RMK AO2 T00621013
Observed
May-20 @ 14:15 UTC
Visibility
10 SM
Flight Rules
VFR
Cloud Levels
  • Scattered at 3,200' AGL
Temperature
C / 43°F
Dewpoint
-1°C / 30°F
Humidity
61%
Altimeter
29.82" Hg
Pressure
1009.82 hPa
Previous

1 hour ago

KRCV 201355Z AUTO 30005KT 10SM CLR 05/M01 A2982 RMK AO2 T00541010
Observed
May-20 @ 13:55 UTC
Wind
  • 300° at 5 KTS
Visibility
10 SM
Flight Rules
VFR
Cloud Levels
  • Clear skies
Temperature
C / 41°F
Dewpoint
-1°C / 30°F
Humidity
66%
Altimeter
29.82" Hg
Pressure
1009.82 hPa